sensor_id;sensor_type;location;lat;lon;timestamp;pressure;altitude;pressure_sealevel;temperature;humidity
56912;BME280;42800;53.928;27.662;2023-04-07T00:01:43;98402.03;;;8.48;100.00
56912;BME280;42800;53.928;27.662;2023-04-07T00:04:09;98377.53;;;8.29;100.00
56912;BME280;42800;53.928;27.662;2023-04-07T00:06:35;98401.63;;;8.46;100.00
56912;BME280;42800;53.928;27.662;2023-04-07T00:09:01;98366.84;;;8.43;100.00
56912;BME280;42800;53.928;27.662;2023-04-07T00:11:28;98372.13;;;8.33;100.00
56912;BME280;42800;53.928;27.662;2023-04-07T00:13:54;98392.63;;;8.46;100.00
56912;BME280;42800;53.928;27.662;2023-04-07T00:16:20;98386.44;;;8.49;100.00
56912;BME280;42800;53.928;27.662;2023-04-07T00:18:46;98379.81;;;8.50;100.00
56912;BME280;42800;53.928;27.662;2023-04-07T00:21:12;98371.47;;;8.39;100.00
56912;BME280;42800;53.928;27.662;2023-04-07T00:23:38;98378.53;;;8.40;100.00
56912;BME280;42800;53.928;27.662;2023-04-07T00:26:04;98372.28;;;8.40;100.00
56912;BME280;42800;53.928;27.662;2023-04-07T00:28:30;98360.66;;;8.46;100.00
56912;BME280;42800;53.928;27.662;2023-04-07T00:30:56;98368.94;;;8.54;100.00
56912;BME280;42800;53.928;27.662;2023-04-07T00:33:22;98362.22;;;8.47;100.00
56912;BME280;42800;53.928;27.662;2023-04-07T00:35:48;98360.09;;;8.37;100.00
56912;BME280;42800;53.928;27.662;2023-04-07T00:38:14;98374.66;;;8.45;100.00
56912;BME280;42800;53.928;27.662;2023-04-07T00:40:40;98359.53;;;8.51;100.00
56912;BME280;42800;53.928;27.662;2023-04-07T00:43:06;98365.25;;;8.42;100.00
56912;BME280;42800;53.928;27.662;2023-04-07T00:45:32;98365.13;;;8.62;100.00
56912;BME280;42800;53.928;27.662;2023-04-07T00:47:58;98376.56;;;8.41;100.00
56912;BME280;42800;53.928;27.662;2023-04-07T00:50:24;98371.84;;;8.38;100.00
56912;BME280;42800;53.928;27.662;2023-04-07T00:52:51;98388.66;;;8.40;100.00
56912;BME280;42800;53.928;27.662;2023-04-07T00:55:19;98415.59;;;8.41;100.00
56912;BME280;42800;53.928;27.662;2023-04-07T00:57:45;98431.16;;;8.14;100.00
56912;BME280;42800;53.928;27.662;2023-04-07T01:00:12;98447.81;;;8.32;100.00
56912;BME280;42800;53.928;27.662;2023-04-07T01:02:41;98419.66;;;8.28;100.00
56912;BME280;42800;53.928;27.662;2023-04-07T01:05:13;98417.19;;;8.19;100.00
56912;BME280;42800;53.928;27.662;2023-04-07T01:07:48;98466.91;;;8.32;100.00
56912;BME280;42800;53.928;27.662;2023-04-07T01:10:19;98442.25;;;8.25;100.00
56912;BME280;42800;53.928;27.662;2023-04-07T01:12:52;98437.22;;;8.27;100.00
56912;BME280;42800;53.928;27.662;2023-04-07T01:15:21;98441.25;;;8.37;100.00
56912;BME280;42800;53.928;27.662;2023-04-07T01:17:52;98443.81;;;8.26;100.00
56912;BME280;42800;53.928;27.662;2023-04-07T01:20:22;98474.25;;;8.01;100.00
56912;BME280;42800;53.928;27.662;2023-04-07T01:22:53;98511.44;;;8.10;100.00
56912;BME280;42800;53.928;27.662;2023-04-07T01:25:48;98516.22;;;8.16;100.00
56912;BME280;42800;53.928;27.662;2023-04-07T01:28:40;98507.94;;;8.13;100.00
56912;BME280;42800;53.928;27.662;2023-04-07T01:31:11;98525.38;;;8.05;100.00
56912;BME280;42800;53.928;27.662;2023-04-07T01:33:38;98539.47;;;8.07;100.00
56912;BME280;42800;53.928;27.662;2023-04-07T01:36:07;98561.09;;;7.96;100.00
56912;BME280;42800;53.928;27.662;2023-04-07T01:38:34;98563.22;;;8.06;100.00
56912;BME280;42800;53.928;27.662;2023-04-07T01:41:02;98571.56;;;8.13;100.00
56912;BME280;42800;53.928;27.662;2023-04-07T01:43:29;98549.50;;;8.02;100.00
56912;BME280;42800;53.928;27.662;2023-04-07T01:45:56;98538.31;;;8.31;100.00
56912;BME280;42800;53.928;27.662;2023-04-07T01:48:23;98509.41;;;8.30;100.00
56912;BME280;42800;53.928;27.662;2023-04-07T01:50:50;98499.41;;;8.14;100.00
56912;BME280;42800;53.928;27.662;2023-04-07T01:53:17;98514.28;;;8.17;100.00
56912;BME280;42800;53.928;27.662;2023-04-07T01:55:44;98529.88;;;8.39;100.00
56912;BME280;42800;53.928;27.662;2023-04-07T01:58:10;98504.84;;;8.37;100.00
56912;BME280;42800;53.928;27.662;2023-04-07T02:00:36;98451.88;;;8.42;100.00
56912;BME280;42800;53.928;27.662;2023-04-07T02:03:09;98462.47;;;8.43;100.00
56912;BME280;42800;53.928;27.662;2023-04-07T02:05:37;98461.88;;;8.57;100.00
56912;BME280;42800;53.928;27.662;2023-04-07T02:08:06;98452.38;;;8.47;100.00
56912;BME280;42800;53.928;27.662;2023-04-07T02:10:34;98439.53;;;8.52;100.00
56912;BME280;42800;53.928;27.662;2023-04-07T02:13:02;98454.06;;;8.33;100.00
56912;BME280;42800;53.928;27.662;2023-04-07T02:15:29;98440.03;;;8.57;100.00
56912;BME280;42800;53.928;27.662;2023-04-07T02:17:57;98435.78;;;8.60;100.00
56912;BME280;42800;53.928;27.662;2023-04-07T02:20:25;98429.81;;;8.54;100.00
56912;BME280;42800;53.928;27.662;2023-04-07T02:22:52;98420.81;;;8.50;100.00
56912;BME280;42800;53.928;27.662;2023-04-07T02:25:24;98452.91;;;8.57;100.00
56912;BME280;42800;53.928;27.662;2023-04-07T02:27:51;98419.22;;;8.49;100.00
56912;BME280;42800;53.928;27.662;2023-04-07T02:30:18;98450.38;;;8.44;100.00
56912;BME280;42800;53.928;27.662;2023-04-07T02:32:44;98474.94;;;8.21;100.00
56912;BME280;42800;53.928;27.662;2023-04-07T02:35:10;98507.72;;;8.44;100.00
56912;BME280;42800;53.928;27.662;2023-04-07T02:37:36;98488.56;;;8.41;100.00
56912;BME280;42800;53.928;27.662;2023-04-07T02:40:04;98520.97;;;8.42;100.00
56912;BME280;42800;53.928;27.662;2023-04-07T02:42:30;98496.84;;;8.25;100.00
56912;BME280;42800;53.928;27.662;2023-04-07T02:44:56;98508.91;;;8.43;100.00
56912;BME280;42800;53.928;27.662;2023-04-07T02:47:22;98515.31;;;8.09;100.00
56912;BME280;42800;53.928;27.662;2023-04-07T02:49:48;98547.19;;;8.47;100.00
56912;BME280;42800;53.928;27.662;2023-04-07T02:52:14;98526.38;;;8.39;100.00
56912;BME280;42800;53.928;27.662;2023-04-07T02:54:40;98543.44;;;8.36;100.00
56912;BME280;42800;53.928;27.662;2023-04-07T02:57:06;98522.75;;;8.35;100.00
56912;BME280;42800;53.928;27.662;2023-04-07T02:59:32;98513.34;;;8.32;100.00
56912;BME280;42800;53.928;27.662;2023-04-07T03:01:58;98551.22;;;8.11;100.00
56912;BME280;42800;53.928;27.662;2023-04-07T03:04:24;98551.88;;;8.04;100.00
56912;BME280;42800;53.928;27.662;2023-04-07T03:06:50;98633.25;;;8.18;100.00
56912;BME280;42800;53.928;27.662;2023-04-07T03:09:16;98586.09;;;7.98;100.00
56912;BME280;42800;53.928;27.662;2023-04-07T03:11:42;98629.91;;;8.05;100.00
56912;BME280;42800;53.928;27.662;2023-04-07T03:14:08;98670.34;;;7.99;100.00
56912;BME280;42800;53.928;27.662;2023-04-07T03:16:35;98662.78;;;8.12;100.00
56912;BME280;42800;53.928;27.662;2023-04-07T03:19:00;98654.72;;;8.19;100.00
56912;BME280;42800;53.928;27.662;2023-04-07T03:21:26;98633.06;;;7.68;100.00
56912;BME280;42800;53.928;27.662;2023-04-07T03:23:53;98727.16;;;7.59;100.00
56912;BME280;42800;53.928;27.662;2023-04-07T03:26:19;98726.63;;;7.69;100.00
56912;BME280;42800;53.928;27.662;2023-04-07T03:28:45;98745.81;;;7.92;100.00
56912;BME280;42800;53.928;27.662;2023-04-07T03:31:12;98732.97;;;7.92;100.00
56912;BME280;42800;53.928;27.662;2023-04-07T03:33:58;98777.81;;;7.75;100.00
56912;BME280;42800;53.928;27.662;2023-04-07T03:36:24;98799.56;;;7.72;100.00
56912;BME280;42800;53.928;27.662;2023-04-07T03:38:52;98788.50;;;7.65;100.00
56912;BME280;42800;53.928;27.662;2023-04-07T03:41:18;98794.91;;;7.72;100.00
56912;BME280;42800;53.928;27.662;2023-04-07T03:43:44;98824.59;;;7.58;100.00
56912;BME280;42800;53.928;27.662;2023-04-07T03:46:10;98833.03;;;7.53;100.00
56912;BME280;42800;53.928;27.662;2023-04-07T03:48:36;98872.28;;;7.48;100.00
56912;BME280;42800;53.928;27.662;2023-04-07T03:51:02;98882.34;;;7.60;100.00
56912;BME280;42800;53.928;27.662;2023-04-07T03:53:28;98872.38;;;7.52;100.00
56912;BME280;42800;53.928;27.662;2023-04-07T03:55:54;98910.56;;;7.68;100.00
56912;BME280;42800;53.928;27.662;2023-04-07T03:58:20;98872.38;;;7.68;100.00
56912;BME280;42800;53.928;27.662;2023-04-07T04:00:46;98894.38;;;7.43;100.00
56912;BME280;42800;53.928;27.662;2023-04-07T04:03:12;98940.75;;;7.43;100.00
56912;BME280;42800;53.928;27.662;2023-04-07T04:05:39;98960.47;;;7.68;100.00
56912;BME280;42800;53.928;27.662;2023-04-07T04:08:05;98944.25;;;7.60;100.00
56912;BME280;42800;53.928;27.662;2023-04-07T04:10:31;98918.66;;;7.64;100.00
56912;BME280;42800;53.928;27.662;2023-04-07T04:12:57;98895.06;;;7.88;100.00
56912;BME280;42800;53.928;27.662;2023-04-07T04:15:25;98851.00;;;7.70;100.00
56912;BME280;42800;53.928;27.662;2023-04-07T04:17:51;98847.28;;;7.78;100.00
56912;BME280;42800;53.928;27.662;2023-04-07T04:20:17;98812.66;;;7.82;100.00
56912;BME280;42800;53.928;27.662;2023-04-07T04:22:43;98756.69;;;7.88;100.00
56912;BME280;42800;53.928;27.662;2023-04-07T04:25:09;98775.84;;;7.92;100.00
56912;BME280;42800;53.928;27.662;2023-04-07T04:27:35;98742.97;;;8.04;100.00
56912;BME280;42800;53.928;27.662;2023-04-07T04:30:01;98765.34;;;7.74;100.00
56912;BME280;42800;53.928;27.662;2023-04-07T04:32:30;98738.03;;;8.10;100.00
56912;BME280;42800;53.928;27.662;2023-04-07T04:34:57;98707.25;;;8.13;100.00
56912;BME280;42800;53.928;27.662;2023-04-07T04:37:22;98717.19;;;8.01;100.00
56912;BME280;42800;53.928;27.662;2023-04-07T04:39:49;98728.16;;;8.05;100.00
56912;BME280;42800;53.928;27.662;2023-04-07T04:42:15;98713.09;;;8.11;100.00
56912;BME280;42800;53.928;27.662;2023-04-07T04:44:41;98710.16;;;8.20;100.00
56912;BME280;42800;53.928;27.662;2023-04-07T04:47:07;98719.84;;;7.98;100.00
56912;BME280;42800;53.928;27.662;2023-04-07T04:49:33;98724.50;;;7.97;100.00
56912;BME280;42800;53.928;27.662;2023-04-07T04:51:59;98683.91;;;8.15;100.00
56912;BME280;42800;53.928;27.662;2023-04-07T04:54:25;98633.50;;;8.52;100.00
56912;BME280;42800;53.928;27.662;2023-04-07T04:56:52;98610.69;;;8.40;100.00
56912;BME280;42800;53.928;27.662;2023-04-07T04:59:17;98622.41;;;8.64;100.00
56912;BME280;42800;53.928;27.662;2023-04-07T05:01:43;98542.72;;;8.62;100.00
56912;BME280;42800;53.928;27.662;2023-04-07T05:04:09;98491.22;;;8.90;100.00
56912;BME280;42800;53.928;27.662;2023-04-07T05:06:35;98454.34;;;9.07;100.00
56912;BME280;42800;53.928;27.662;2023-04-07T05:09:01;98419.38;;;9.24;100.00
56912;BME280;42800;53.928;27.662;2023-04-07T05:11:27;98413.06;;;9.19;100.00
56912;BME280;42800;53.928;27.662;2023-04-07T05:13:54;98408.16;;;9.36;100.00
56912;BME280;42800;53.928;27.662;2023-04-07T05:16:19;98406.97;;;9.00;100.00
56912;BME280;42800;53.928;27.662;2023-04-07T05:18:45;98407.97;;;9.18;100.00
56912;BME280;42800;53.928;27.662;2023-04-07T05:21:11;98403.38;;;8.92;100.00
56912;BME280;42800;53.928;27.662;2023-04-07T05:23:38;98427.97;;;8.92;100.00
56912;BME280;42800;53.928;27.662;2023-04-07T05:26:04;98443.16;;;8.89;100.00
56912;BME280;42800;53.928;27.662;2023-04-07T05:28:29;98440.44;;;8.89;100.00
56912;BME280;42800;53.928;27.662;2023-04-07T05:30:56;98433.00;;;8.86;100.00
56912;BME280;42800;53.928;27.662;2023-04-07T05:33:22;98433.28;;;9.45;100.00
56912;BME280;42800;53.928;27.662;2023-04-07T05:35:48;98394.50;;;9.02;100.00
56912;BME280;42800;53.928;27.662;2023-04-07T05:38:14;98399.81;;;9.22;100.00
56912;BME280;42800;53.928;27.662;2023-04-07T05:40:41;98399.13;;;9.32;100.00
56912;BME280;42800;53.928;27.662;2023-04-07T05:43:07;98379.13;;;9.65;100.00
56912;BME280;42800;53.928;27.662;2023-04-07T05:45:33;98385.19;;;9.44;100.00
56912;BME280;42800;53.928;27.662;2023-04-07T05:47:59;98389.72;;;9.29;100.00
56912;BME280;42800;53.928;27.662;2023-04-07T05:50:25;98393.09;;;9.15;100.00
56912;BME280;42800;53.928;27.662;2023-04-07T05:52:51;98410.13;;;9.02;100.00
56912;BME280;42800;53.928;27.662;2023-04-07T05:55:17;98416.69;;;9.27;100.00
56912;BME280;42800;53.928;27.662;2023-04-07T05:57:43;98429.81;;;9.14;100.00
56912;BME280;42800;53.928;27.662;2023-04-07T06:00:10;98426.09;;;9.00;100.00
56912;BME280;42800;53.928;27.662;2023-04-07T06:02:36;98435.72;;;9.16;100.00
56912;BME280;42800;53.928;27.662;2023-04-07T06:05:05;98444.41;;;8.95;100.00
56912;BME280;42800;53.928;27.662;2023-04-07T06:07:31;98447.53;;;9.28;100.00
56912;BME280;42800;53.928;27.662;2023-04-07T06:09:57;98437.34;;;9.25;100.00
56912;BME280;42800;53.928;27.662;2023-04-07T06:12:23;98422.53;;;9.29;100.00
56912;BME280;42800;53.928;27.662;2023-04-07T06:14:51;98445.41;;;9.10;100.00
56912;BME280;42800;53.928;27.662;2023-04-07T06:17:17;98420.91;;;9.21;100.00
56912;BME280;42800;53.928;27.662;2023-04-07T06:19:44;98438.22;;;9.32;100.00
56912;BME280;42800;53.928;27.662;2023-04-07T06:22:10;98442.94;;;9.35;100.00
56912;BME280;42800;53.928;27.662;2023-04-07T06:24:36;98445.94;;;9.23;100.00
56912;BME280;42800;53.928;27.662;2023-04-07T06:27:02;98479.50;;;9.20;100.00
56912;BME280;42800;53.928;27.662;2023-04-07T06:29:28;98483.59;;;9.03;100.00
56912;BME280;42800;53.928;27.662;2023-04-07T06:31:54;98505.09;;;9.05;100.00
56912;BME280;42800;53.928;27.662;2023-04-07T06:34:20;98484.13;;;9.16;100.00
56912;BME280;42800;53.928;27.662;2023-04-07T06:36:46;98499.66;;;9.08;100.00
56912;BME280;42800;53.928;27.662;2023-04-07T06:39:13;98487.84;;;9.31;100.00
56912;BME280;42800;53.928;27.662;2023-04-07T06:41:39;98501.13;;;9.32;100.00
56912;BME280;42800;53.928;27.662;2023-04-07T06:44:08;98502.03;;;9.40;100.00
56912;BME280;42800;53.928;27.662;2023-04-07T06:46:34;98459.75;;;9.75;100.00
56912;BME280;42800;53.928;27.662;2023-04-07T06:49:00;98420.75;;;9.85;100.00
56912;BME280;42800;53.928;27.662;2023-04-07T06:51:28;98422.78;;;9.51;100.00
56912;BME280;42800;53.928;27.662;2023-04-07T06:53:54;98458.81;;;9.56;100.00
56912;BME280;42800;53.928;27.662;2023-04-07T06:56:22;98506.44;;;9.52;100.00
56912;BME280;42800;53.928;27.662;2023-04-07T06:58:48;98594.25;;;9.13;100.00
56912;BME280;42800;53.928;27.662;2023-04-07T07:01:15;98598.00;;;9.58;100.00
56912;BME280;42800;53.928;27.662;2023-04-07T07:03:41;98587.22;;;9.72;100.00
56912;BME280;42800;53.928;27.662;2023-04-07T07:06:07;98625.25;;;9.81;100.00
56912;BME280;42800;53.928;27.662;2023-04-07T07:08:33;98550.94;;;9.82;100.00
56912;BME280;42800;53.928;27.662;2023-04-07T07:10:59;98553.34;;;9.84;100.00
56912;BME280;42800;53.928;27.662;2023-04-07T07:13:26;98559.38;;;10.00;100.00
56912;BME280;42800;53.928;27.662;2023-04-07T07:15:53;98541.13;;;10.15;100.00
56912;BME280;42800;53.928;27.662;2023-04-07T07:18:19;98497.19;;;10.04;100.00
56912;BME280;42800;53.928;27.662;2023-04-07T07:20:45;98507.91;;;10.20;100.00
56912;BME280;42800;53.928;27.662;2023-04-07T07:23:11;98506.81;;;9.87;100.00
56912;BME280;42800;53.928;27.662;2023-04-07T07:25:37;98552.19;;;10.26;100.00
56912;BME280;42800;53.928;27.662;2023-04-07T07:28:03;98564.88;;;10.41;100.00
56912;BME280;42800;53.928;27.662;2023-04-07T07:30:29;98534.22;;;10.28;100.00
56912;BME280;42800;53.928;27.662;2023-04-07T07:32:55;98569.47;;;10.30;100.00
56912;BME280;42800;53.928;27.662;2023-04-07T07:35:22;98560.19;;;10.42;100.00
56912;BME280;42800;53.928;27.662;2023-04-07T07:37:49;98511.59;;;10.35;100.00
56912;BME280;42800;53.928;27.662;2023-04-07T07:40:16;98561.94;;;10.23;100.00
56912;BME280;42800;53.928;27.662;2023-04-07T07:42:42;98587.06;;;10.29;100.00
56912;BME280;42800;53.928;27.662;2023-04-07T07:45:08;98588.44;;;10.12;100.00
56912;BME280;42800;53.928;27.662;2023-04-07T07:47:35;98628.53;;;10.27;100.00
56912;BME280;42800;53.928;27.662;2023-04-07T07:50:02;98605.38;;;10.62;100.00
56912;BME280;42800;53.928;27.662;2023-04-07T07:52:28;98600.78;;;10.32;100.00
56912;BME280;42800;53.928;27.662;2023-04-07T07:54:54;98632.47;;;10.26;100.00
56912;BME280;42800;53.928;27.662;2023-04-07T07:57:20;98633.28;;;10.30;100.00
56912;BME280;42800;53.928;27.662;2023-04-07T07:59:46;98633.31;;;10.34;100.00
56912;BME280;42800;53.928;27.662;2023-04-07T08:02:11;98622.19;;;10.57;100.00
56912;BME280;42800;53.928;27.662;2023-04-07T08:04:38;98569.97;;;10.43;100.00
56912;BME280;42800;53.928;27.662;2023-04-07T08:07:04;98592.66;;;10.88;100.00
56912;BME280;42800;53.928;27.662;2023-04-07T08:09:30;98555.06;;;10.92;100.00
56912;BME280;42800;53.928;27.662;2023-04-07T08:11:56;98533.50;;;10.87;100.00
56912;BME280;42800;53.928;27.662;2023-04-07T08:14:22;98565.97;;;10.81;100.00
56912;BME280;42800;53.928;27.662;2023-04-07T08:16:48;98532.59;;;10.72;100.00
56912;BME280;42800;53.928;27.662;2023-04-07T08:19:14;98523.19;;;10.69;100.00
56912;BME280;42800;53.928;27.662;2023-04-07T08:21:41;98555.78;;;10.81;100.00
56912;BME280;42800;53.928;27.662;2023-04-07T08:24:08;98561.97;;;11.30;100.00
56912;BME280;42800;53.928;27.662;2023-04-07T08:26:34;98496.28;;;11.84;100.00
56912;BME280;42800;53.928;27.662;2023-04-07T08:29:00;98445.66;;;11.77;100.00
56912;BME280;42800;53.928;27.662;2023-04-07T08:31:26;98442.94;;;11.85;100.00
56912;BME280;42800;53.928;27.662;2023-04-07T08:33:52;98445.31;;;12.29;100.00
56912;BME280;42800;53.928;27.662;2023-04-07T08:36:22;98444.91;;;12.09;100.00
56912;BME280;42800;53.928;27.662;2023-04-07T08:38:48;98448.84;;;12.08;100.00
56912;BME280;42800;53.928;27.662;2023-04-07T08:41:18;98446.88;;;11.98;100.00
56912;BME280;42800;53.928;27.662;2023-04-07T08:43:46;98449.22;;;11.92;100.00
56912;BME280;42800;53.928;27.662;2023-04-07T08:46:14;98459.75;;;11.72;100.00
56912;BME280;42800;53.928;27.662;2023-04-07T08:48:43;98448.00;;;11.75;100.00
56912;BME280;42800;53.928;27.662;2023-04-07T08:51:10;98458.97;;;11.72;100.00
56912;BME280;42800;53.928;27.662;2023-04-07T08:53:42;98450.41;;;11.84;100.00
56912;BME280;42800;53.928;27.662;2023-04-07T08:56:10;98467.28;;;11.90;100.00
56912;BME280;42800;53.928;27.662;2023-04-07T08:58:36;98474.25;;;11.66;100.00
56912;BME280;42800;53.928;27.662;2023-04-07T09:01:03;98467.69;;;12.24;100.00
56912;BME280;42800;53.928;27.662;2023-04-07T09:03:30;98457.50;;;12.17;100.00
56912;BME280;42800;53.928;27.662;2023-04-07T09:05:57;98448.44;;;12.49;100.00
56912;BME280;42800;53.928;27.662;2023-04-07T09:08:24;98434.31;;;12.15;100.00
56912;BME280;42800;53.928;27.662;2023-04-07T09:10:50;98442.50;;;12.65;100.00
56912;BME280;42800;53.928;27.662;2023-04-07T09:13:16;98446.09;;;12.22;100.00
56912;BME280;42800;53.928;27.662;2023-04-07T09:15:42;98445.31;;;12.43;100.00
56912;BME280;42800;53.928;27.662;2023-04-07T09:18:08;98448.41;;;12.70;100.00
56912;BME280;42800;53.928;27.662;2023-04-07T09:20:56;98439.41;;;12.13;100.00
56912;BME280;42800;53.928;27.662;2023-04-07T09:23:27;98450.81;;;12.29;100.00
56912;BME280;42800;53.928;27.662;2023-04-07T09:25:53;98440.59;;;12.19;100.00
56912;BME280;42800;53.928;27.662;2023-04-07T09:28:20;98435.84;;;12.69;100.00
56912;BME280;42800;53.928;27.662;2023-04-07T09:30:51;98446.47;;;12.60;100.00
56912;BME280;42800;53.928;27.662;2023-04-07T09:33:25;98447.63;;;12.59;100.00
56912;BME280;42800;53.928;27.662;2023-04-07T09:35:51;98445.19;;;12.97;100.00
56912;BME280;42800;53.928;27.662;2023-04-07T09:38:17;98450.78;;;12.51;100.00
56912;BME280;42800;53.928;27.662;2023-04-07T09:40:43;98455.13;;;12.44;100.00
56912;BME280;42800;53.928;27.662;2023-04-07T09:43:14;98447.63;;;12.52;100.00
56912;BME280;42800;53.928;27.662;2023-04-07T09:45:41;98445.25;;;12.68;100.00
56912;BME280;42800;53.928;27.662;2023-04-07T09:48:17;98438.88;;;13.04;100.00
56912;BME280;42800;53.928;27.662;2023-04-07T09:50:44;98444.81;;;12.91;100.00
56912;BME280;42800;53.928;27.662;2023-04-07T09:53:13;98449.91;;;12.93;100.00
56912;BME280;42800;53.928;27.662;2023-04-07T09:55:39;98458.06;;;13.25;100.00
56912;BME280;42800;53.928;27.662;2023-04-07T09:58:07;98461.38;;;13.72;100.00
56912;BME280;42800;53.928;27.662;2023-04-07T10:00:34;98475.66;;;13.49;100.00
56912;BME280;42800;53.928;27.662;2023-04-07T10:03:02;98466.16;;;13.61;100.00
56912;BME280;42800;53.928;27.662;2023-04-07T10:05:28;98499.94;;;13.72;100.00
56912;BME280;42800;53.928;27.662;2023-04-07T10:07:54;98520.38;;;13.78;100.00
56912;BME280;42800;53.928;27.662;2023-04-07T10:10:21;98511.47;;;14.16;100.00
56912;BME280;42800;53.928;27.662;2023-04-07T10:12:48;98529.06;;;14.32;100.00
56912;BME280;42800;53.928;27.662;2023-04-07T10:15:15;98541.78;;;14.16;100.00
56912;BME280;42800;53.928;27.662;2023-04-07T10:17:45;98541.25;;;14.35;100.00
56912;BME280;42800;53.928;27.662;2023-04-07T10:20:12;98549.78;;;14.03;100.00
56912;BME280;42800;53.928;27.662;2023-04-07T10:22:40;98534.78;;;14.04;100.00
56912;BME280;42800;53.928;27.662;2023-04-07T10:25:09;98528.63;;;14.41;100.00
56912;BME280;42800;53.928;27.662;2023-04-07T10:27:41;98513.22;;;13.92;100.00
56912;BME280;42800;53.928;27.662;2023-04-07T10:30:17;98509.53;;;14.16;100.00
56912;BME280;42800;53.928;27.662;2023-04-07T10:32:47;98501.88;;;13.79;100.00
56912;BME280;42800;53.928;27.662;2023-04-07T10:35:14;98485.81;;;14.22;100.00
56912;BME280;42800;53.928;27.662;2023-04-07T10:38:11;98498.50;;;14.12;100.00
56912;BME280;42800;53.928;27.662;2023-04-07T10:40:39;98508.44;;;13.99;100.00
56912;BME280;42800;53.928;27.662;2023-04-07T10:43:06;98489.56;;;13.98;100.00
56912;BME280;42800;53.928;27.662;2023-04-07T10:45:55;98474.81;;;14.19;100.00
56912;BME280;42800;53.928;27.662;2023-04-07T10:48:23;98485.59;;;13.99;100.00
56912;BME280;42800;53.928;27.662;2023-04-07T10:51:14;98503.94;;;14.72;100.00
56912;BME280;42800;53.928;27.662;2023-04-07T10:57:09;98580.31;;;14.82;100.00
56912;BME280;42800;53.928;27.662;2023-04-07T10:59:38;98590.66;;;14.74;100.00
56912;BME280;42800;53.928;27.662;2023-04-07T11:02:32;98631.78;;;15.06;100.00
56912;BME280;42800;53.928;27.662;2023-04-07T11:04:58;98580.81;;;14.73;100.00
56912;BME280;42800;53.928;27.662;2023-04-07T11:07:42;98606.94;;;15.06;100.00
56912;BME280;42800;53.928;27.662;2023-04-07T11:10:10;98558.31;;;14.75;100.00
56912;BME280;42800;53.928;27.662;2023-04-07T11:12:36;98551.41;;;14.49;100.00
56912;BME280;42800;53.928;27.662;2023-04-07T11:15:15;98539.22;;;14.43;100.00
56912;BME280;42800;53.928;27.662;2023-04-07T11:17:41;98509.41;;;14.79;100.00
56912;BME280;42800;53.928;27.662;2023-04-07T11:20:08;98554.97;;;14.46;100.00
56912;BME280;42800;53.928;27.662;2023-04-07T11:22:34;98524.06;;;14.20;100.00
56912;BME280;42800;53.928;27.662;2023-04-07T11:25:02;98503.31;;;14.01;100.00
56912;BME280;42800;53.928;27.662;2023-04-07T11:27:28;98500.88;;;14.63;100.00
56912;BME280;42800;53.928;27.662;2023-04-07T11:29:55;98506.50;;;14.48;100.00
56912;BME280;42800;53.928;27.662;2023-04-07T11:32:22;98495.50;;;14.45;100.00
56912;BME280;42800;53.928;27.662;2023-04-07T11:34:50;98502.50;;;14.60;100.00
56912;BME280;42800;53.928;27.662;2023-04-07T11:37:19;98522.75;;;14.84;100.00
56912;BME280;42800;53.928;27.662;2023-04-07T11:39:50;98541.22;;;14.91;100.00
56912;BME280;42800;53.928;27.662;2023-04-07T11:42:30;98511.66;;;14.46;100.00
56912;BME280;42800;53.928;27.662;2023-04-07T11:44:56;98488.22;;;14.20;100.00
56912;BME280;42800;53.928;27.662;2023-04-07T11:47:33;98472.31;;;13.86;100.00
56912;BME280;42800;53.928;27.662;2023-04-07T11:49:59;98481.09;;;13.67;100.00
56912;BME280;42800;53.928;27.662;2023-04-07T11:52:25;98475.66;;;13.56;100.00
56912;BME280;42800;53.928;27.662;2023-04-07T11:54:51;98486.19;;;13.69;100.00
56912;BME280;42800;53.928;27.662;2023-04-07T11:57:23;98485.13;;;13.45;100.00
56912;BME280;42800;53.928;27.662;2023-04-07T11:59:50;98508.22;;;13.69;100.00
56912;BME280;42800;53.928;27.662;2023-04-07T12:02:30;98523.63;;;13.52;100.00
56912;BME280;42800;53.928;27.662;2023-04-07T12:04:56;98605.84;;;13.57;100.00
56912;BME280;42800;53.928;27.662;2023-04-07T12:07:22;98691.25;;;13.10;100.00
56912;BME280;42800;53.928;27.662;2023-04-07T12:09:48;98670.78;;;13.54;100.00
56912;BME280;42800;53.928;27.662;2023-04-07T12:12:25;98720.34;;;13.54;100.00
56912;BME280;42800;53.928;27.662;2023-04-07T12:14:51;98709.31;;;13.58;100.00
56912;BME280;42800;53.928;27.662;2023-04-07T12:17:21;98701.47;;;13.56;100.00
56912;BME280;42800;53.928;27.662;2023-04-07T12:19:47;98747.88;;;13.54;100.00
56912;BME280;42800;53.928;27.662;2023-04-07T12:22:13;98677.47;;;13.46;100.00
56912;BME280;42800;53.928;27.662;2023-04-07T12:24:39;98599.06;;;13.76;100.00
56912;BME280;42800;53.928;27.662;2023-04-07T12:27:05;98551.09;;;13.77;100.00
56912;BME280;42800;53.928;27.662;2023-04-07T12:29:32;98533.72;;;13.83;100.00
56912;BME280;42800;53.928;27.662;2023-04-07T12:31:58;98513.69;;;13.76;100.00
56912;BME280;42800;53.928;27.662;2023-04-07T12:34:24;98549.50;;;13.72;100.00
56912;BME280;42800;53.928;27.662;2023-04-07T12:36:50;98525.13;;;13.71;100.00
56912;BME280;42800;53.928;27.662;2023-04-07T12:39:16;98520.72;;;13.87;100.00
56912;BME280;42800;53.928;27.662;2023-04-07T12:41:42;98500.41;;;13.53;100.00
56912;BME280;42800;53.928;27.662;2023-04-07T12:44:10;98512.50;;;13.80;100.00
56912;BME280;42800;53.928;27.662;2023-04-07T12:46:36;98522.00;;;13.69;100.00
56912;BME280;42800;53.928;27.662;2023-04-07T12:49:02;98546.44;;;13.63;100.00
56912;BME280;42800;53.928;27.662;2023-04-07T12:51:29;98536.91;;;13.75;100.00